Time;durP1;ratioP1;P1;durP2;ratioP2;P2;SDS_P1;SDS_P2;PMS_P1;PMS_P2;Temp;Humidity;BMP_temperature;BMP_pressure;BME280_temperature;BME280_humidity;BME280_pressure;Samples;Min_cycle;Max_cycle;Signal;HPM_P1;HPM_P2
2021/06/06 00:01:43;;;;;;;5.47;4.13;;;;;;;18.46;79.62;101375.53;5054375;28;20449;-69
2021/06/06 00:04:12;;;;;;;4.27;2.90;;;;;;;18.45;79.53;101373.88;5054112;28;20501;-69
2021/06/06 00:06:39;;;;;;;5.30;4.00;;;;;;;18.38;79.21;101371.69;5054309;28;20442;-70
2021/06/06 00:09:09;;;;;;;7.20;3.53;;;;;;;18.34;79.24;101373.50;5054107;28;20442;-69
2021/06/06 00:11:39;;;;;;;4.17;3.50;;;;;;;18.28;79.63;101369.38;5054131;28;20453;-70
2021/06/06 00:14:07;;;;;;;3.93;3.00;;;;;;;18.23;79.81;101372.28;5054364;28;20489;-69
2021/06/06 00:16:36;;;;;;;4.80;3.97;;;;;;;18.24;80.49;101379.38;5053944;28;20442;-69
2021/06/06 00:19:03;;;;;;;9.30;3.80;;;;;;;18.17;80.44;101373.63;5053667;28;20796;-69
2021/06/06 00:21:31;;;;;;;5.07;3.87;;;;;;;18.17;80.47;101378.31;5054123;28;20442;-69
2021/06/06 00:23:57;;;;;;;5.33;3.53;;;;;;;18.14;80.51;101374.28;5053486;28;20478;-69
2021/06/06 00:26:24;;;;;;;6.53;3.30;;;;;;;18.13;80.86;101378.97;5053747;28;20447;-70
2021/06/06 00:28:52;;;;;;;4.47;3.13;;;;;;;18.08;81.11;101378.34;5053826;28;20442;-70
2021/06/06 00:31:18;;;;;;;4.20;2.97;;;;;;;18.02;80.91;101374.22;5053725;28;20449;-70
2021/06/06 00:33:45;;;;;;;6.83;3.07;;;;;;;18.00;80.98;101369.03;5053581;28;20442;-70
2021/06/06 00:36:11;;;;;;;4.10;2.97;;;;;;;17.95;80.66;101371.97;5053738;28;20813;-70
2021/06/06 00:38:37;;;;;;;5.40;3.07;;;;;;;17.88;81.39;101377.16;5053716;28;20521;-70
2021/06/06 00:41:04;;;;;;;4.50;2.90;;;;;;;17.83;81.42;101372.69;5053704;28;20458;-70
2021/06/06 00:43:30;;;;;;;3.97;2.97;;;;;;;17.82;81.08;101378.50;5053653;28;20485;-70
2021/06/06 00:45:58;;;;;;;3.40;2.93;;;;;;;17.75;81.66;101373.56;5053441;28;20970;-70
2021/06/06 00:48:24;;;;;;;4.33;3.87;;;;;;;17.71;81.83;101367.09;5053658;28;20442;-71
2021/06/06 00:50:56;;;;;;;7.80;3.13;;;;;;;17.70;82.04;101372.88;5053036;28;21002;-69
2021/06/06 00:53:30;;;;;;;4.13;3.17;;;;;;;17.70;82.04;101372.88;5053492;28;20427;-71
2021/06/06 00:55:56;;;;;;;3.77;2.60;;;;;;;17.62;82.50;101374.56;5052762;28;20426;-70
2021/06/06 00:58:23;;;;;;;6.70;3.60;;;;;;;17.61;82.25;101376.47;5053372;28;20442;-70
2021/06/06 01:00:51;;;;;;;4.03;2.97;;;;;;;17.61;82.32;101376.47;5064313;28;20461;-69
2021/06/06 01:03:19;;;;;;;3.20;2.40;;;;;;;17.64;82.40;101375.81;5053381;28;20484;-70
2021/06/06 01:05:50;;;;;;;3.60;3.20;;;;;;;17.63;82.38;101376.16;5053409;28;20492;-69
2021/06/06 01:08:19;;;;;;;5.17;3.50;;;;;;;17.59;82.66;101380.69;5053292;28;20437;-70
2021/06/06 01:10:47;;;;;;;5.97;3.50;;;;;;;17.60;83.01;101376.81;5053284;28;20473;-69
2021/06/06 01:13:17;;;;;;;4.60;2.53;;;;;;;17.59;82.57;101369.72;5053073;28;20426;-70
2021/06/06 01:15:47;;;;;;;5.87;3.60;;;;;;;17.57;82.47;101367.28;5053509;28;20439;-69
2021/06/06 01:18:20;;;;;;;5.07;3.27;;;;;;;17.58;82.78;101374.41;5052920;28;20442;-69
2021/06/06 01:20:58;;;;;;;5.13;3.60;;;;;;;17.58;82.87;101368.94;5053175;28;20829;-70
2021/06/06 01:23:35;;;;;;;4.63;2.87;;;;;;;17.56;82.77;101370.38;5053190;28;20466;-69
2021/06/06 01:26:07;;;;;;;3.83;2.97;;;;;;;17.53;83.11;101371.84;5053236;28;20423;-68
2021/06/06 01:28:41;;;;;;;4.27;3.07;;;;;;;17.47;83.48;101366.88;5053142;28;20426;-69
2021/06/06 01:31:10;;;;;;;3.50;2.80;;;;;;;17.46;83.28;101368.00;5053145;28;20466;-70
2021/06/06 01:33:40;;;;;;;6.30;3.33;;;;;;;17.43;83.50;101372.19;5052965;28;20438;-70
2021/06/06 01:36:13;;;;;;;4.60;3.10;;;;;;;17.42;83.57;101367.06;5053064;28;20480;-72
2021/06/06 01:38:43;;;;;;;3.43;2.77;;;;;;;17.40;83.33;101368.19;5052933;28;20426;-71
2021/06/06 01:41:16;;;;;;;7.53;3.73;;;;;;;17.37;83.65;101362.56;5052838;28;20454;-70
2021/06/06 01:43:51;;;;;;;6.20;3.80;;;;;;;17.35;83.46;101360.16;5052893;28;20462;-70
2021/06/06 01:46:20;;;;;;;4.83;3.60;;;;;;;17.31;83.89;101358.38;5052913;28;20441;-69
2021/06/06 01:48:46;;;;;;;5.13;3.17;;;;;;;17.32;83.83;101365.47;5053000;28;20453;-70
2021/06/06 01:51:19;;;;;;;2.70;2.40;;;;;;;17.33;83.20;101362.41;5052346;28;20470;-70
2021/06/06 01:53:47;;;;;;;6.50;3.13;;;;;;;17.36;83.39;101360.97;5052637;28;20419;-69
2021/06/06 01:56:20;;;;;;;3.60;2.87;;;;;;;17.33;83.54;101365.16;5052741;28;20442;-70
2021/06/06 01:58:47;;;;;;;3.00;2.30;;;;;;;17.32;83.93;101369.03;5052696;28;20430;-70
2021/06/06 02:01:17;;;;;;;5.00;3.70;;;;;;;17.27;83.83;101357.44;5052710;28;20488;-69
2021/06/06 02:03:44;;;;;;;3.47;2.63;;;;;;;17.26;83.76;101373.03;5052599;28;20489;-70
2021/06/06 02:06:14;;;;;;;5.23;3.50;;;;;;;17.29;83.87;101361.44;5052681;28;20438;-69
2021/06/06 02:08:42;;;;;;;4.97;3.40;;;;;;;17.29;83.28;101361.44;5056077;28;20450;-70
2021/06/06 02:11:12;;;;;;;4.87;3.60;;;;;;;17.25;83.77;101360.50;5055961;28;20469;-70
2021/06/06 02:13:44;;;;;;;5.60;4.03;;;;;;;17.21;83.76;101359.53;5056302;28;20441;-69
2021/06/06 02:16:13;;;;;;;5.73;3.10;;;;;;;17.18;83.63;101360.22;5056499;28;20425;-69
2021/06/06 02:18:40;;;;;;;4.30;3.40;;;;;;;17.14;84.19;101364.72;5056231;28;20438;-70
2021/06/06 02:21:06;;;;;;;5.27;3.37;;;;;;;17.16;83.98;101362.47;5056069;28;20473;-70
2021/06/06 02:23:35;;;;;;;4.07;3.20;;;;;;;17.11;84.24;101359.91;5056130;28;20929;-71
2021/06/06 02:26:07;;;;;;;5.93;3.73;;;;;;;17.14;84.05;101359.25;5055776;28;20935;-70
2021/06/06 02:28:45;;;;;;;3.90;3.43;;;;;;;17.15;84.36;101361.66;5056118;28;20426;-69
2021/06/06 02:31:19;;;;;;;4.13;3.40;;;;;;;17.12;84.44;101369.72;5055664;28;20982;-70
2021/06/06 02:33:50;;;;;;;3.90;3.33;;;;;;;17.14;84.21;101364.72;5055948;28;20475;-70
2021/06/06 02:36:18;;;;;;;5.10;2.90;;;;;;;17.14;83.92;101360.06;5055685;28;20430;-70
2021/06/06 02:38:50;;;;;;;3.50;2.57;;;;;;;17.10;83.93;101363.78;5055530;28;20537;-70
2021/06/06 02:41:19;;;;;;;3.30;2.70;;;;;;;17.10;84.00;101364.56;5055729;28;20489;-70
2021/06/06 02:43:52;;;;;;;5.03;3.23;;;;;;;17.09;84.31;101362.16;5058869;28;20540;-71
2021/06/06 02:46:19;;;;;;;6.70;3.43;;;;;;;17.04;84.17;101367.78;5062039;28;20434;-71
2021/06/06 02:48:50;;;;;;;2.87;2.40;;;;;;;17.01;84.07;101361.06;5055740;28;20435;-71
2021/06/06 02:51:20;;;;;;;6.30;3.93;;;;;;;16.96;84.57;101366.69;5055281;28;20474;-71
2021/06/06 02:53:57;;;;;;;4.10;2.37;;;;;;;16.96;84.78;101357.69;5055647;28;20500;-70
2021/06/06 02:56:26;;;;;;;6.03;3.67;;;;;;;16.96;84.74;101363.16;5055656;28;20422;-70
2021/06/06 02:58:57;;;;;;;4.47;3.50;;;;;;;16.90;84.18;101362.50;5055098;28;20492;-71
2021/06/06 03:01:31;;;;;;;6.70;2.40;;;;;;;16.86;85.38;101365.09;5055491;28;20427;-71
2021/06/06 03:03:59;;;;;;;3.83;2.83;;;;;;;16.78;85.88;101359.66;5055494;28;20470;-71
2021/06/06 03:06:33;;;;;;;5.80;3.13;;;;;;;16.69;86.05;101367.00;5055419;28;20517;-71
2021/06/06 03:08:59;;;;;;;3.80;2.70;;;;;;;16.69;86.30;101364.28;5055374;28;20427;-71
2021/06/06 03:11:27;;;;;;;5.77;3.90;;;;;;;16.72;86.43;101371.84;5054931;28;20943;-70
2021/06/06 03:13:57;;;;;;;4.20;3.57;;;;;;;16.64;86.51;101367.97;5054598;28;20458;-71
2021/06/06 03:16:25;;;;;;;6.13;3.37;;;;;;;16.60;86.48;101372.47;5055134;28;20430;-70
2021/06/06 03:18:54;;;;;;;4.20;3.20;;;;;;;16.57;86.52;101384.88;5054579;28;20575;-71
2021/06/06 03:21:24;;;;;;;3.90;2.70;;;;;;;16.63;86.84;101382.78;5055041;28;20529;-71
2021/06/06 03:23:54;;;;;;;5.37;3.70;;;;;;;16.62;87.07;101378.44;5054952;28;20524;-71
2021/06/06 03:26:21;;;;;;;8.23;3.97;;;;;;;16.56;87.15;101379.75;5054909;28;20806;-71
2021/06/06 03:28:47;;;;;;;10.40;3.70;;;;;;;16.52;87.39;101376.84;5054473;28;20958;-71
2021/06/06 03:31:20;;;;;;;5.83;2.90;;;;;;;16.54;87.80;101384.72;5054791;28;20463;-71
2021/06/06 03:33:52;;;;;;;3.37;2.70;;;;;;;16.54;87.81;101384.72;5054872;28;20423;-71
2021/06/06 03:36:22;;;;;;;3.73;3.00;;;;;;;16.54;87.86;101388.25;5054515;28;20430;-71
2021/06/06 03:38:49;;;;;;;4.37;3.00;;;;;;;16.56;88.32;101394.22;5054675;28;20776;-71
2021/06/06 03:41:15;;;;;;;4.90;3.43;;;;;;;16.59;88.37;101385.34;5054577;28;20474;-71
2021/06/06 03:43:41;;;;;;;7.93;3.37;;;;;;;16.57;88.42;101393.09;5054604;28;20478;-71
2021/06/06 03:46:07;;;;;;;4.40;2.73;;;;;;;16.57;88.12;101390.34;5054541;28;20495;-70
2021/06/06 03:48:34;;;;;;;4.87;3.43;;;;;;;16.60;87.69;101392.47;5054501;28;20446;-71
2021/06/06 03:51:01;;;;;;;4.37;3.10;;;;;;;16.64;88.30;101396.16;5054068;28;20478;-70
2021/06/06 03:53:27;;;;;;;7.47;3.90;;;;;;;16.65;88.40;101386.03;5054429;28;20515;-71
2021/06/06 03:55:54;;;;;;;4.03;3.10;;;;;;;16.67;89.03;101389.22;5054358;28;20430;-70
2021/06/06 03:58:20;;;;;;;4.70;3.10;;;;;;;16.67;87.99;101386.50;5054389;28;20438;-71
2021/06/06 04:00:48;;;;;;;4.47;2.87;;;;;;;16.71;88.11;101383.91;5054282;28;20462;-70
2021/06/06 04:03:15;;;;;;;4.30;3.33;;;;;;;16.72;88.31;101386.34;5054137;28;20482;-71
2021/06/06 04:05:43;;;;;;;5.40;3.27;;;;;;;16.74;88.33;101381.38;5054004;28;20480;-70
2021/06/06 04:08:10;;;;;;;5.67;3.53;;;;;;;16.74;88.27;101383.31;5054015;28;20813;-71
2021/06/06 04:10:36;;;;;;;3.73;2.63;;;;;;;16.82;87.91;101385.22;5053649;28;20994;-70
2021/06/06 04:13:02;;;;;;;4.60;3.40;;;;;;;16.86;88.37;101380.69;5053705;28;20441;-71
2021/06/06 04:15:29;;;;;;;3.87;3.47;;;;;;;16.92;88.71;101384.09;5054278;28;20446;-70
2021/06/06 04:17:55;;;;;;;3.57;3.27;;;;;;;16.91;89.30;101386.03;5054015;28;20465;-71
2021/06/06 04:20:24;;;;;;;4.73;3.40;;;;;;;16.99;88.85;101390.66;5053631;28;20458;-70
2021/06/06 04:22:51;;;;;;;4.70;2.90;;;;;;;17.06;87.70;101384.72;5053775;28;20485;-71
2021/06/06 04:25:19;;;;;;;4.80;3.10;;;;;;;17.12;88.18;101389.69;5053939;28;20460;-71
2021/06/06 04:27:45;;;;;;;4.67;3.17;;;;;;;17.17;88.50;101391.44;5053899;28;20454;-69
2021/06/06 04:30:13;;;;;;;6.97;4.03;;;;;;;17.20;88.89;101382.59;5062724;28;20480;-70
2021/06/06 04:32:39;;;;;;;4.20;3.13;;;;;;;17.29;89.18;101382.56;5053311;28;20450;-70
2021/06/06 04:35:06;;;;;;;5.37;3.40;;;;;;;17.36;88.83;101371.91;5053650;28;20489;-70
2021/06/06 04:37:32;;;;;;;4.70;3.03;;;;;;;17.44;88.53;101382.00;5053721;28;20500;-70
2021/06/06 04:40:00;;;;;;;5.47;3.40;;;;;;;17.52;88.42;101380.38;5053485;28;20470;-70
2021/06/06 04:42:26;;;;;;;2.60;2.33;;;;;;;17.58;88.54;101376.34;5053312;28;20784;-70
2021/06/06 04:44:52;;;;;;;5.53;3.77;;;;;;;17.65;88.55;101379.34;5053370;28;20485;-70
2021/06/06 04:47:18;;;;;;;5.17;3.53;;;;;;;17.77;88.33;101393.19;5053565;28;20441;-70
2021/06/06 04:49:45;;;;;;;5.50;3.77;;;;;;;17.85;88.39;101388.81;5075282;22;20448;-68
2021/06/06 04:52:13;;;;;;;4.47;3.03;;;;;;;17.94;88.48;101386.81;5033184;28;20443;-68
2021/06/06 04:54:39;;;;;;;5.23;4.73;;;;;;;18.03;87.89;101389.53;5033480;28;20448;-68
2021/06/06 04:57:08;;;;;;;4.97;4.03;;;;;;;18.14;87.24;101385.25;5033466;28;20439;-68
2021/06/06 04:59:36;;;;;;;7.13;3.80;;;;;;;18.26;86.61;101387.28;5033225;28;20447;-68
2021/06/06 05:02:02;;;;;;;5.10;4.60;;;;;;;18.34;85.75;101389.97;5033416;28;20443;-68
2021/06/06 05:04:28;;;;;;;7.23;4.50;;;;;;;18.45;84.98;101390.34;5033394;28;20513;-68
2021/06/06 05:06:54;;;;;;;7.60;4.27;;;;;;;18.54;83.99;101379.31;5033427;28;20462;-66
2021/06/06 05:09:22;;;;;;;6.97;4.40;;;;;;;18.64;82.75;101389.91;5033291;28;20451;-65
2021/06/06 05:11:48;;;;;;;6.57;4.60;;;;;;;18.77;81.64;101397.06;5033279;28;20474;-69
2021/06/06 05:14:15;;;;;;;4.63;3.30;;;;;;;18.89;81.34;101388.06;5033300;28;20439;-66
2021/06/06 05:16:42;;;;;;;6.07;5.20;;;;;;;18.98;81.14;101398.97;5033166;28;20474;-67
2021/06/06 05:19:08;;;;;;;4.20;3.80;;;;;;;19.10;79.91;101399.00;5033094;28;20956;-70
2021/06/06 05:21:34;;;;;;;7.07;4.20;;;;;;;19.24;79.63;101394.00;5033275;28;20470;-69
2021/06/06 05:24:00;;;;;;;5.10;4.33;;;;;;;19.35;80.03;101397.16;5033115;28;20482;-70
2021/06/06 05:26:26;;;;;;;7.37;5.03;;;;;;;19.47;79.66;101401.84;5033267;28;20450;-69
2021/06/06 05:28:52;;;;;;;6.67;5.30;;;;;;;19.55;78.80;101400.94;5033158;28;20823;-70
2021/06/06 05:31:21;;;;;;;6.00;5.40;;;;;;;19.63;77.79;101400.06;5032831;28;20980;-70
2021/06/06 05:33:47;;;;;;;7.40;5.27;;;;;;;19.71;77.24;101401.91;5033094;28;20501;-69
2021/06/06 05:36:14;;;;;;;6.53;4.30;;;;;;;19.80;76.74;101399.06;5033110;28;20450;-69
2021/06/06 05:38:40;;;;;;;7.07;4.83;;;;;;;19.89;76.83;101406.03;5032772;28;20454;-70
2021/06/06 05:41:09;;;;;;;6.13;5.17;;;;;;;19.96;77.05;101402.69;5032991;28;20462;-69
2021/06/06 05:43:36;;;;;;;10.90;5.43;;;;;;;20.07;77.26;101398.34;5036420;28;20486;-69
2021/06/06 05:46:02;;;;;;;6.60;4.70;;;;;;;20.15;78.02;101415.88;5036967;28;20439;-69
2021/06/06 05:48:29;;;;;;;8.33;5.30;;;;;;;20.27;77.56;101409.53;5036577;28;20956;-70
2021/06/06 05:51:01;;;;;;;6.37;5.40;;;;;;;20.41;74.85;101413.53;5036171;28;21054;-66
2021/06/06 05:53:28;;;;;;;8.10;5.13;;;;;;;20.52;75.33;101413.06;5036826;28;20519;-66
2021/06/06 05:55:54;;;;;;;7.73;5.50;;;;;;;20.64;72.93;101416.59;5036716;28;20473;-66
2021/06/06 05:58:20;;;;;;;7.20;5.00;;;;;;;20.76;72.45;101413.00;5036677;28;20960;-66
2021/06/06 06:00:48;;;;;;;7.40;4.60;;;;;;;20.85;73.06;101421.94;5036580;28;20455;-66
2021/06/06 06:03:15;;;;;;;6.47;4.67;;;;;;;20.91;74.19;101411.44;5036520;28;20523;-66
2021/06/06 06:05:43;;;;;;;8.10;6.13;;;;;;;20.99;73.51;101418.78;5036584;28;20447;-65
2021/06/06 06:08:12;;;;;;;7.40;5.20;;;;;;;21.07;74.27;101417.81;5036293;28;20970;-67
2021/06/06 06:10:38;;;;;;;13.90;5.80;;;;;;;21.11;74.33;101417.88;5036455;28;20836;-68
2021/06/06 06:13:04;;;;;;;8.23;5.67;;;;;;;21.17;74.10;101416.50;5036806;28;20427;-67
2021/06/06 06:15:29;;;;;;;9.07;6.13;;;;;;;21.28;72.73;101423.06;5036320;28;20474;-67
2021/06/06 06:17:55;;;;;;;5.70;5.10;;;;;;;21.38;72.63;101416.28;5036002;28;20447;-67
2021/06/06 06:20:22;;;;;;;5.10;4.60;;;;;;;21.43;73.65;101418.78;5036227;28;20467;-67
2021/06/06 06:22:49;;;;;;;7.37;5.60;;;;;;;21.51;71.91;101423.31;5035912;28;20940;-67
2021/06/06 06:25:17;;;;;;;10.33;5.70;;;;;;;21.59;72.10;101421.53;5036288;28;20448;-67
2021/06/06 06:27:43;;;;;;;6.90;5.47;;;;;;;21.64;72.19;101424.03;5036118;28;20447;-67
2021/06/06 06:30:13;;;;;;;6.40;4.70;;;;;;;21.70;72.39;101428.13;5018117;28;21003;-67
2021/06/06 06:32:40;;;;;;;6.73;4.73;;;;;;;21.78;73.84;101427.16;5035781;28;20968;-67
2021/06/06 06:35:08;;;;;;;8.43;5.77;;;;;;;21.80;73.47;101429.56;5035986;28;20443;-67
2021/06/06 06:37:34;;;;;;;6.50;5.20;;;;;;;21.84;74.34;101427.69;5035807;28;20825;-67
2021/06/06 06:40:01;;;;;;;7.87;5.20;;;;;;;21.88;74.29;101439.59;5035550;28;20459;-67
2021/06/06 06:42:27;;;;;;;6.73;5.13;;;;;;;21.95;72.81;101431.47;5035907;28;20451;-66
2021/06/06 06:44:53;;;;;;;7.83;5.73;;;;;;;22.03;72.23;101424.97;5035402;28;21003;-67
2021/06/06 06:47:19;;;;;;;8.00;5.20;;;;;;;22.08;72.49;101432.19;5035747;28;20531;-67
2021/06/06 06:49:45;;;;;;;10.60;7.20;;;;;;;22.15;71.55;101437.91;5035536;28;20466;-68
2021/06/06 06:52:12;;;;;;;7.10;5.23;;;;;;;22.20;71.58;101434.06;5035640;28;20485;-67
2021/06/06 06:54:38;;;;;;;6.00;4.60;;;;;;;22.25;71.71;101434.59;5034661;28;20489;-68
2021/06/06 06:57:06;;;;;;;9.67;5.70;;;;;;;22.40;71.24;101436.53;5035581;28;20484;-67
2021/06/06 06:59:32;;;;;;;7.20;5.70;;;;;;;22.52;70.74;101430.03;5035325;28;20836;-66
2021/06/06 07:02:00;;;;;;;5.73;4.70;;;;;;;22.59;70.40;101435.72;5035153;28;20971;-67
2021/06/06 07:04:26;;;;;;;7.90;5.60;;;;;;;22.67;69.01;101442.22;5035416;28;20616;-66
2021/06/06 07:06:54;;;;;;;5.80;5.03;;;;;;;22.72;69.37;101436.41;5035409;28;20447;-66
2021/06/06 07:09:20;;;;;;;9.20;5.67;;;;;;;22.76;69.25;101434.50;5035352;28;20443;-66
2021/06/06 07:11:47;;;;;;;9.40;6.63;;;;;;;22.88;69.28;101439.06;5035203;28;20521;-66
2021/06/06 07:14:14;;;;;;;9.70;5.90;;;;;;;22.95;70.43;101435.69;5035301;28;20440;-66
2021/06/06 07:16:40;;;;;;;10.50;6.63;;;;;;;23.09;72.39;101441.50;5035236;28;20443;-66
2021/06/06 07:19:07;;;;;;;8.57;6.53;;;;;;;23.20;71.20;101439.75;5035279;28;20467;-66
2021/06/06 07:21:34;;;;;;;5.47;4.23;;;;;;;23.22;70.34;101434.66;5035063;28;20467;-66
2021/06/06 07:24:01;;;;;;;7.80;6.50;;;;;;;23.27;70.39;101433.53;5034948;28;20563;-66
2021/06/06 07:26:32;;;;;;;9.80;6.50;;;;;;;23.34;69.91;101440.00;5035075;28;20455;-67
2021/06/06 07:29:00;;;;;;;8.37;5.60;;;;;;;23.45;68.69;101433.88;5035046;28;20427;-66
2021/06/06 07:31:28;;;;;;;7.60;5.23;;;;;;;23.61;67.94;101432.56;5034813;28;20481;-66
2021/06/06 07:33:55;;;;;;;9.00;6.40;;;;;;;23.67;68.27;101433.09;5034900;28;20463;-68
2021/06/06 07:36:22;;;;;;;7.10;6.00;;;;;;;23.77;67.07;101426.94;5034911;28;20451;-68
2021/06/06 07:38:49;;;;;;;8.50;5.60;;;;;;;23.87;66.87;101440.16;5034887;28;20443;-68
2021/06/06 07:41:15;;;;;;;8.70;5.60;;;;;;;23.98;64.36;101437.53;5034381;28;20462;-69
2021/06/06 07:43:41;;;;;;;6.43;4.70;;;;;;;24.02;64.91;101435.63;5034428;28;20873;-68
2021/06/06 07:46:08;;;;;;;7.73;5.47;;;;;;;24.08;65.84;101430.56;5034721;28;20447;-67
2021/06/06 07:48:35;;;;;;;7.37;5.33;;;;;;;24.21;64.27;101440.25;5034372;28;20443;-67
2021/06/06 07:51:01;;;;;;;5.77;4.80;;;;;;;24.35;62.38;101434.94;5034400;28;20479;-68
2021/06/06 07:53:27;;;;;;;5.13;4.57;;;;;;;24.41;60.12;101441.78;5034653;28;20443;-68
2021/06/06 07:55:55;;;;;;;7.57;5.80;;;;;;;24.48;62.41;101440.25;5034254;28;20940;-67
2021/06/06 07:58:24;;;;;;;6.70;5.50;;;;;;;24.61;62.21;101444.41;5034428;28;20451;-67
2021/06/06 08:00:50;;;;;;;6.07;5.17;;;;;;;24.66;62.27;101441.31;5034496;28;20462;-67
2021/06/06 08:03:17;;;;;;;6.93;5.10;;;;;;;24.67;62.72;101435.41;5033780;28;20490;-67
2021/06/06 08:05:45;;;;;;;5.00;3.97;;;;;;;24.68;61.86;101441.72;5033835;28;20956;-67
2021/06/06 08:08:13;;;;;;;5.53;4.80;;;;;;;24.80;59.30;101443.47;5034277;28;20450;-67
2021/06/06 08:10:42;;;;;;;5.80;4.27;;;;;;;24.84;57.35;101439.56;5034108;28;20455;-66
2021/06/06 08:13:08;;;;;;;5.40;3.80;;;;;;;24.90;57.09;101442.78;5034137;28;20477;-66
2021/06/06 08:15:34;;;;;;;6.67;4.53;;;;;;;24.88;58.31;101439.59;5034208;28;20435;-67
2021/06/06 08:18:06;;;;;;;5.97;4.37;;;;;;;24.97;56.69;101442.06;5034110;28;20452;-68
2021/06/06 08:20:36;;;;;;;6.10;4.10;;;;;;;25.09;55.88;101439.06;5034006;28;20829;-68
2021/06/06 08:23:03;;;;;;;5.83;4.23;;;;;;;25.18;54.59;101436.78;5033908;28;20502;-69
2021/06/06 08:25:29;;;;;;;4.67;4.27;;;;;;;25.21;55.32;101438.81;5033955;28;20842;-68
2021/06/06 08:27:55;;;;;;;6.80;5.30;;;;;;;25.29;54.69;101437.72;5033549;28;20446;-69
2021/06/06 08:30:25;;;;;;;5.33;4.23;;;;;;;25.42;53.59;101441.00;5033881;28;20525;-69
2021/06/06 08:32:51;;;;;;;6.83;3.70;;;;;;;25.48;53.10;101436.69;5034099;28;20500;-69
2021/06/06 08:35:17;;;;;;;5.40;4.00;;;;;;;25.52;50.49;101439.50;5033823;28;20493;-68
2021/06/06 08:37:44;;;;;;;5.13;3.57;;;;;;;25.59;50.68;101437.59;5033783;28;20539;-69
2021/06/06 08:40:14;;;;;;;3.70;3.33;;;;;;;25.62;51.48;101438.78;5033663;28;20467;-68
2021/06/06 08:42:44;;;;;;;4.40;4.00;;;;;;;25.67;51.36;101441.22;5033861;28;20435;-69
2021/06/06 08:45:19;;;;;;;3.40;3.00;;;;;;;25.56;49.97;101440.34;5033937;28;20482;-68
2021/06/06 08:47:45;;;;;;;4.60;4.20;;;;;;;25.65;50.14;101441.59;5033883;28;20530;-66
2021/06/06 08:50:15;;;;;;;4.30;3.90;;;;;;;25.65;49.53;101436.06;5033335;28;20482;-65
2021/06/06 08:52:45;;;;;;;6.60;3.87;;;;;;;25.75;50.15;101436.53;5033579;28;20447;-66
2021/06/06 08:55:27;;;;;;;5.67;3.90;;;;;;;25.89;50.74;101447.75;5033709;28;20468;-65
2021/06/06 08:58:00;;;;;;;4.77;3.67;;;;;;;25.92;47.24;101441.44;5033575;28;20446;-66
2021/06/06 09:00:32;;;;;;;5.00;2.93;;;;;;;25.99;47.65;101438.75;5033586;28;20471;-66
2021/06/06 09:03:02;;;;;;;2.77;2.50;;;;;;;26.12;41.43;101439.22;5033482;28;20443;-65
2021/06/06 09:05:32;;;;;;;3.03;2.30;;;;;;;26.28;40.36;101438.91;5033348;28;20439;-65
2021/06/06 09:08:00;;;;;;;2.70;2.47;;;;;;;26.44;41.85;101442.22;5033159;28;20838;-66
2021/06/06 09:10:30;;;;;;;3.60;3.30;;;;;;;26.53;40.94;101437.09;5033305;28;20467;-65
2021/06/06 09:12:57;;;;;;;2.97;2.67;;;;;;;26.53;42.56;101436.31;5033275;28;20846;-66
2021/06/06 09:15:26;;;;;;;3.57;2.73;;;;;;;26.57;42.84;101442.69;5032860;28;20971;-65
2021/06/06 09:17:56;;;;;;;3.10;2.70;;;;;;;26.67;40.92;101439.94;5032665;28;20450;-66
2021/06/06 09:20:28;;;;;;;2.67;2.40;;;;;;;26.77;42.70;101434.81;5032701;28;20999;-66
2021/06/06 09:23:08;;;;;;;2.80;2.27;;;;;;;26.79;42.65;101433.25;5032929;28;20423;-66
2021/06/06 09:25:37;;;;;;;2.43;2.23;;;;;;;26.84;42.10;101432.88;5033335;28;20446;-65
2021/06/06 09:28:06;;;;;;;3.07;2.40;;;;;;;27.00;41.30;101438.06;5033115;28;20487;-66
2021/06/06 09:30:33;;;;;;;2.60;2.40;;;;;;;27.10;40.76;101431.00;5033046;28;20524;-67
2021/06/06 09:33:11;;;;;;;3.00;2.70;;;;;;;26.99;43.22;101439.25;5033084;28;20497;-67
2021/06/06 09:35:40;;;;;;;2.90;2.60;;;;;;;26.97;42.50;101429.72;5033450;28;20485;-66
2021/06/06 09:38:14;;;;;;;2.80;2.60;;;;;;;27.03;42.02;101431.72;5033036;28;20443;-66
2021/06/06 09:40:44;;;;;;;3.30;3.00;;;;;;;27.08;37.60;101439.69;5032984;28;20462;-69
2021/06/06 09:43:22;;;;;;;2.50;2.30;;;;;;;27.09;39.02;101434.94;5032886;28;20451;-67
2021/06/06 09:45:48;;;;;;;3.33;2.33;;;;;;;27.27;38.93;101432.19;5033117;28;20909;-68
2021/06/06 09:48:24;;;;;;;2.30;2.07;;;;;;;27.40;37.58;101431.44;5033047;28;20910;-67
2021/06/06 09:50:53;;;;;;;2.30;2.17;;;;;;;27.44;38.02;101422.28;5033281;28;20470;-67
2021/06/06 09:53:22;;;;;;;2.77;2.57;;;;;;;27.66;37.72;101435.81;5033087;28;20515;-67
2021/06/06 09:55:50;;;;;;;3.77;2.97;;;;;;;27.77;38.79;101429.47;5033167;28;20680;-67
2021/06/06 09:58:29;;;;;;;2.37;2.17;;;;;;;27.84;37.61;101418.31;5032934;28;20435;-67
2021/06/06 10:01:00;;;;;;;3.00;2.80;;;;;;;27.75;37.24;101432.66;5032861;28;20459;-67
2021/06/06 10:03:32;;;;;;;3.30;2.80;;;;;;;27.69;36.78;101439.00;5032571;28;20909;-68
2021/06/06 10:06:13;;;;;;;3.93;3.30;;;;;;;27.75;39.23;101427.06;5033078;28;20477;-68
2021/06/06 10:08:41;;;;;;;5.03;2.90;;;;;;;27.81;39.85;101433.84;5033018;28;20477;-68
2021/06/06 10:11:12;;;;;;;2.83;2.43;;;;;;;27.88;39.13;101441.41;5032835;28;20459;-68
2021/06/06 10:13:42;;;;;;;2.90;2.60;;;;;;;27.89;39.18;101441.00;5032523;28;20796;-68
2021/06/06 10:16:11;;;;;;;3.70;2.40;;;;;;;27.93;38.63;101446.56;5032874;28;20446;-68
2021/06/06 10:18:42;;;;;;;2.70;2.30;;;;;;;27.90;39.66;101439.81;5032748;28;20450;-68
2021/06/06 10:21:14;;;;;;;3.20;2.90;;;;;;;27.63;38.70;101438.59;5032657;28;20471;-68
2021/06/06 10:23:43;;;;;;;3.30;2.70;;;;;;;27.57;40.06;101437.41;5032717;28;20467;-70
2021/06/06 10:26:14;;;;;;;3.20;2.60;;;;;;;27.51;37.95;101433.44;5032731;28;20443;-70
2021/06/06 10:28:45;;;;;;;3.70;2.80;;;;;;;27.56;38.04;101430.25;5033003;28;20447;-70
2021/06/06 10:31:15;;;;;;;3.10;2.40;;;;;;;27.57;39.65;101427.06;5036295;28;20473;-70
2021/06/06 10:33:46;;;;;;;2.47;2.27;;;;;;;27.41;40.22;101430.25;5036178;28;20450;-70
2021/06/06 10:36:15;;;;;;;2.60;2.40;;;;;;;27.25;42.41;101432.59;5036161;28;20438;-70
2021/06/06 10:38:42;;;;;;;2.97;2.70;;;;;;;27.13;42.01;101430.19;5036248;28;20447;-70
2021/06/06 10:41:15;;;;;;;2.53;2.33;;;;;;;27.06;42.39;101428.16;5036251;28;20467;-71
2021/06/06 10:43:48;;;;;;;4.77;2.80;;;;;;;26.99;40.29;101424.56;5036110;28;20525;-70
2021/06/06 10:46:21;;;;;;;2.80;2.50;;;;;;;27.20;41.31;101426.63;5035988;28;20486;-70
2021/06/06 10:48:51;;;;;;;4.60;3.07;;;;;;;27.51;41.33;101430.63;5036026;28;20427;-70
2021/06/06 10:51:26;;;;;;;3.00;2.70;;;;;;;27.65;38.86;101422.28;5070935;22;20493;-71
2021/06/06 10:53:56;;;;;;;2.50;2.30;;;;;;;27.81;37.52;101425.50;5055583;28;20430;-71
2021/06/06 10:56:48;;;;;;;4.10;2.50;;;;;;;27.81;38.66;101435.84;5055161;28;20979;-70
2021/06/06 10:59:14;;;;;;;3.37;2.80;;;;;;;27.75;39.42;101431.84;5055555;28;20434;-71
2021/06/06 11:01:54;;;;;;;3.33;3.03;;;;;;;27.94;38.83;101428.69;5055402;28;20462;-71
2021/06/06 11:04:27;;;;;;;3.07;2.40;;;;;;;28.23;37.77;101426.63;5055340;28;20512;-72
2021/06/06 11:07:05;;;;;;;2.70;2.50;;;;;;;28.48;37.36;101429.38;5055433;28;20520;-71
2021/06/06 11:09:34;;;;;;;3.00;2.43;;;;;;;28.39;36.99;101429.78;5054790;28;20458;-72
2021/06/06 11:12:04;;;;;;;2.83;2.60;;;;;;;28.31;36.45;101422.63;5055449;28;20462;-73
2021/06/06 11:14:39;;;;;;;3.77;3.03;;;;;;;28.63;36.39;101427.31;5055519;28;20461;-73
2021/06/06 11:17:10;;;;;;;3.00;2.70;;;;;;;29.32;34.42;101420.97;5054647;28;20426;-72
2021/06/06 11:19:36;;;;;;;2.60;2.40;;;;;;;29.95;33.65;101420.88;5054449;28;20419;-73
2021/06/06 11:22:13;;;;;;;2.50;2.30;;;;;;;30.00;34.56;101426.00;5054567;28;20462;-73
2021/06/06 11:24:48;;;;;;;3.00;2.47;;;;;;;30.28;35.70;101419.34;5054581;28;20470;-74
2021/06/06 11:27:29;;;;;;;3.33;2.87;;;;;;;30.46;34.91;101410.75;5065781;28;20445;-73
2021/06/06 11:30:00;;;;;;;2.10;1.90;;;;;;;30.71;35.61;101416.03;5055457;28;20442;-70
2021/06/06 11:32:29;;;;;;;2.73;2.53;;;;;;;30.55;33.33;101415.84;5054262;28;20426;-71